createdAt,value
2019-02-17T00:00:37.590Z,25.00
2019-02-17T00:03:26.975Z,24.70
2019-02-17T00:06:08.735Z,24.50
2019-02-17T00:08:58.254Z,23.73
2019-02-17T00:11:40.464Z,24.83
2019-02-17T00:14:43.966Z,23.80
2019-02-17T00:17:14.341Z,23.83
2019-02-17T00:20:03.965Z,26.37
2019-02-17T00:22:49.072Z,26.13
2019-02-17T00:25:40.617Z,24.47
2019-02-17T00:28:23.254Z,24.70
2019-02-17T00:31:12.844Z,25.50
2019-02-17T00:33:55.138Z,23.87
2019-02-17T00:36:44.824Z,25.63
2019-02-17T00:39:27.580Z,26.13
2019-02-17T00:45:18.672Z,26.20
2019-02-17T00:48:08.049Z,26.17
2019-02-17T00:50:50.764Z,25.47
2019-02-17T00:53:40.325Z,27.13
2019-02-17T00:56:22.116Z,25.07
2019-02-17T00:59:11.952Z,26.97
2019-02-17T01:01:56.568Z,26.95
2019-02-17T01:04:46.108Z,28.30
2019-02-17T01:07:28.497Z,26.43
2019-02-17T01:10:18.319Z,26.13
2019-02-17T01:13:02.511Z,28.37
2019-02-17T01:15:51.790Z,27.17
2019-02-17T01:18:35.215Z,27.00
2019-02-17T01:21:38.901Z,28.00
2019-02-17T01:24:11.441Z,28.90
2019-02-17T01:27:00.372Z,27.40
2019-02-17T01:29:42.600Z,27.37
2019-02-17T01:32:32.270Z,28.37
2019-02-17T01:35:14.629Z,27.70
2019-02-17T01:38:06.136Z,28.10
2019-02-17T01:40:49.827Z,26.30
2019-02-17T01:43:39.558Z,28.07
2019-02-17T01:46:21.761Z,28.32
2019-02-17T01:49:11.683Z,27.90
2019-02-17T01:51:54.087Z,28.50
2019-02-17T01:54:43.482Z,28.33
2019-02-17T01:57:28.031Z,28.07
2019-02-17T02:00:17.445Z,28.47
2019-02-17T02:02:59.727Z,28.60
2019-02-17T02:05:49.401Z,30.30
2019-02-17T02:08:31.629Z,28.30
2019-02-17T02:14:11.045Z,29.50
2019-02-17T02:17:00.393Z,29.77
2019-02-17T02:19:42.366Z,29.32
2019-02-17T02:25:35.071Z,29.12
2019-02-17T02:28:24.720Z,28.97
2019-02-17T02:30:55.306Z,29.87
2019-02-17T02:33:44.945Z,29.43
2019-02-17T02:36:26.913Z,29.30
2019-02-17T02:42:17.322Z,28.35
2019-02-17T02:45:07.872Z,30.23
2019-02-17T02:47:50.679Z,30.50
2019-02-17T02:50:33.813Z,30.52
2019-02-17T02:56:10.696Z,31.60
2019-02-17T02:59:00.055Z,30.70
2019-02-17T03:01:42.034Z,31.35
2019-02-17T03:04:31.923Z,31.93
2019-02-17T03:07:17.001Z,31.50
2019-02-17T03:10:07.044Z,32.57
2019-02-17T03:12:49.143Z,32.60
2019-02-17T03:18:26.672Z,31.83
2019-02-17T03:21:18.504Z,32.67
2019-02-17T03:24:08.543Z,32.58
2019-02-17T03:26:57.938Z,32.57
2019-02-17T03:29:39.504Z,32.00
2019-02-17T03:35:17.517Z,30.57
2019-02-17T03:40:55.183Z,33.57
2019-02-17T03:46:32.304Z,31.63
2019-02-17T03:52:09.302Z,31.40
2019-02-17T03:57:59.905Z,33.17
2019-02-17T04:00:49.595Z,33.53
2019-02-17T04:03:31.434Z,33.77
2019-02-17T04:08:56.642Z,36.13
2019-02-17T04:11:46.292Z,34.27
2019-02-17T04:14:35.668Z,34.47
2019-02-17T04:17:17.449Z,34.43
2019-02-17T04:20:06.930Z,34.03
2019-02-17T04:22:37.165Z,34.30
2019-02-17T04:25:07.392Z,33.77
2019-02-17T04:30:44.757Z,31.75
2019-02-17T04:33:34.129Z,33.67
2019-02-17T04:36:04.665Z,33.17
2019-02-17T04:41:41.722Z,34.17
2019-02-17T04:44:31.274Z,33.65
2019-02-17T04:47:13.822Z,32.83
2019-02-17T04:52:53.398Z,31.27
2019-02-17T04:58:45.489Z,32.17
2019-02-17T05:01:48.431Z,31.20
2019-02-17T05:04:18.161Z,32.57
2019-02-17T05:07:07.540Z,31.87
2019-02-17T05:09:49.121Z,30.80
2019-02-17T05:12:38.459Z,32.27
2019-02-17T05:15:21.085Z,30.00
2019-02-17T05:18:10.502Z,30.77
2019-02-17T05:20:54.854Z,30.53
2019-02-17T05:23:44.418Z,30.43
2019-02-17T05:26:26.403Z,30.43
2019-02-17T05:29:08.741Z,31.37
2019-02-17T05:31:58.170Z,31.53
2019-02-17T05:34:40.111Z,32.73
2019-02-17T05:40:18.761Z,32.20
2019-02-17T05:43:08.691Z,32.50
2019-02-17T05:45:51.017Z,33.63
2019-02-17T05:48:40.641Z,32.85
2019-02-17T05:51:22.233Z,33.30
2019-02-17T05:54:04.165Z,32.87
2019-02-17T05:56:53.820Z,32.77
2019-02-17T05:59:35.435Z,32.53
2019-02-17T06:05:12.321Z,34.20
2019-02-17T06:08:02.099Z,35.37
2019-02-17T06:10:43.744Z,33.95
2019-02-17T06:13:33.445Z,33.40
2019-02-17T06:16:15.639Z,35.67
2019-02-17T06:19:07.386Z,34.63
2019-02-17T06:21:49.830Z,33.70
2019-02-17T06:24:39.769Z,33.13
2019-02-17T06:27:22.089Z,33.45
2019-02-17T06:32:58.510Z,33.93
2019-02-17T06:38:35.348Z,34.65
2019-02-17T06:41:25.014Z,34.88
2019-02-17T06:44:07.179Z,34.25
2019-02-17T06:49:47.822Z,35.23
2019-02-17T06:52:29.512Z,33.87
2019-02-17T06:55:37.921Z,35.27
2019-02-17T06:58:08.078Z,35.07
2019-02-17T07:00:59.389Z,35.07
2019-02-17T07:03:41.836Z,36.93
2019-02-17T07:06:34.766Z,36.53
2019-02-17T07:09:17.408Z,36.27
2019-02-17T07:12:06.951Z,37.97
2019-02-17T07:14:38.458Z,37.43
2019-02-17T07:17:28.321Z,37.40
2019-02-17T07:20:10.178Z,36.60
2019-02-17T07:22:59.606Z,37.77
2019-02-17T07:25:42.595Z,36.60
2019-02-17T07:31:22.691Z,37.03
2019-02-17T07:34:25.829Z,38.03
2019-02-17T07:36:55.640Z,38.08
2019-02-17T07:42:45.713Z,37.47
2019-02-17T07:45:35.035Z,36.83
2019-02-17T07:48:17.539Z,36.63
2019-02-17T07:59:32.386Z,38.37
2019-02-17T08:02:22.113Z,35.20
2019-02-17T08:08:12.451Z,34.15
2019-02-17T08:11:04.334Z,36.20
2019-02-17T08:13:45.597Z,36.70
2019-02-17T08:16:35.195Z,35.60
2019-02-17T08:19:16.870Z,35.57
2019-02-17T08:22:06.321Z,34.17
2019-02-17T08:24:48.767Z,36.43
2019-02-17T08:30:25.067Z,33.83
2019-02-17T08:33:14.673Z,33.63
2019-02-17T08:35:56.679Z,33.27
2019-02-17T08:41:33.574Z,31.53
2019-02-17T08:47:10.739Z,32.67
2019-02-17T08:52:48.117Z,30.13
2019-02-17T08:55:39.775Z,30.37
2019-02-17T08:58:22.121Z,31.10
2019-02-17T09:00:53.087Z,28.42
2019-02-17T09:06:56.111Z,28.60
2019-02-17T09:09:38.857Z,29.07
2019-02-17T09:12:28.266Z,30.03
2019-02-17T09:15:10.203Z,29.13
2019-02-17T09:20:53.803Z,27.33
2019-02-17T09:23:24.112Z,27.40
2019-02-17T09:26:13.789Z,28.73
2019-02-17T09:32:04.083Z,28.13
2019-02-17T09:37:54.742Z,27.00
2019-02-17T09:43:46.724Z,26.17
2019-02-17T09:46:36.044Z,26.73
2019-02-17T09:49:18.287Z,24.67
2019-02-17T09:52:08.028Z,25.90
2019-02-17T09:55:11.158Z,26.73
2019-02-17T09:57:41.256Z,25.70
2019-02-17T10:03:17.659Z,26.30
2019-02-17T10:06:07.086Z,26.93
2019-02-17T10:08:49.828Z,25.83
2019-02-17T10:14:41.035Z,26.47
2019-02-17T10:20:31.662Z,24.90
2019-02-17T10:23:21.060Z,26.87
2019-02-17T10:26:02.909Z,27.37
2019-02-17T10:28:52.345Z,25.23
2019-02-17T10:31:34.134Z,27.27
2019-02-17T10:34:23.569Z,24.15
2019-02-17T10:37:06.074Z,25.85
2019-02-17T10:39:36.403Z,24.83
2019-02-17T10:42:25.796Z,25.53
2019-02-17T10:44:56.301Z,26.00
2019-02-17T10:47:46.084Z,25.65
2019-02-17T10:50:38.082Z,26.93
2019-02-17T10:53:20.656Z,25.30
2019-02-17T10:56:12.073Z,27.27
2019-02-17T10:58:55.685Z,26.70
2019-02-17T11:01:45.007Z,26.50
2019-02-17T11:04:27.384Z,26.60
2019-02-17T11:07:16.740Z,26.63
2019-02-17T11:09:59.400Z,25.37
2019-02-17T11:12:51.476Z,25.43
2019-02-17T11:15:34.231Z,25.70
2019-02-17T11:21:11.628Z,26.37
2019-02-17T11:27:01.899Z,25.87
2019-02-17T11:29:51.262Z,24.20
2019-02-17T11:32:33.310Z,25.10
2019-02-17T11:38:25.560Z,25.57
2019-02-17T11:40:55.861Z,25.77
2019-02-17T11:43:45.616Z,24.30
2019-02-17T11:46:35.305Z,26.60
2019-02-17T11:49:17.277Z,24.83
2019-02-17T11:55:02.099Z,25.00
2019-02-17T11:57:46.114Z,24.93
2019-02-17T12:00:36.335Z,25.37
2019-02-17T12:03:22.182Z,24.82
2019-02-17T12:09:54.918Z,24.80
2019-02-17T12:12:40.613Z,24.17
2019-02-17T12:15:34.472Z,23.70
2019-02-17T12:18:20.895Z,22.87
2019-02-17T12:27:38.888Z,24.00
2019-02-17T12:30:18.589Z,24.27
2019-02-17T12:36:01.223Z,24.20
2019-02-17T12:38:51.822Z,23.37
2019-02-17T12:41:34.506Z,24.33
2019-02-17T12:44:37.743Z,23.30
2019-02-17T12:47:12.273Z,23.57
2019-02-17T12:49:56.141Z,23.33
2019-02-17T12:52:46.845Z,23.07
2019-02-17T12:55:27.101Z,22.87
2019-02-17T12:58:29.655Z,23.17
2019-02-17T13:01:13.402Z,23.03
2019-02-17T13:07:04.910Z,23.33
2019-02-17T13:09:54.263Z,23.47
2019-02-17T13:12:35.945Z,22.48
2019-02-17T13:15:38.740Z,22.43
2019-02-17T13:18:09.765Z,21.60
2019-02-17T13:24:02.079Z,21.70
2019-02-17T13:26:32.429Z,22.03
2019-02-17T13:32:17.097Z,21.57
2019-02-17T13:34:59.478Z,21.07
2019-02-17T13:37:48.872Z,20.63
2019-02-17T13:40:31.195Z,20.13
2019-02-17T13:43:20.565Z,19.83
2019-02-17T13:46:02.907Z,20.47
2019-02-17T13:48:52.638Z,19.47
2019-02-17T13:51:34.260Z,22.22
2019-02-17T13:54:43.058Z,22.07
2019-02-17T13:57:25.949Z,21.03
2019-02-17T14:00:15.807Z,21.27
2019-02-17T14:02:58.227Z,21.80
2019-02-17T14:05:47.666Z,22.10
2019-02-17T14:11:38.853Z,20.57
2019-02-17T14:14:09.194Z,19.67
2019-02-17T14:16:58.673Z,20.13
2019-02-17T14:19:48.716Z,22.53
2019-02-17T14:22:30.675Z,22.23
2019-02-17T14:28:21.284Z,18.67
2019-02-17T14:31:10.640Z,18.60
2019-02-17T14:33:58.527Z,20.68
2019-02-17T14:39:44.355Z,16.40
2019-02-17T14:42:14.622Z,17.57
2019-02-17T14:47:52.004Z,16.73
2019-02-17T14:50:33.610Z,15.93
2019-02-17T14:53:04.149Z,17.40
2019-02-17T14:58:50.871Z,16.27
2019-02-17T15:01:33.294Z,16.60
2019-02-17T15:04:16.020Z,16.77
2019-02-17T15:10:08.775Z,16.20
2019-02-17T15:15:52.180Z,15.73
2019-02-17T15:18:41.546Z,15.93
2019-02-17T15:21:23.549Z,16.60
2019-02-17T15:27:03.987Z,16.07
2019-02-17T15:29:53.399Z,15.70
2019-02-17T15:32:38.182Z,15.80
2019-02-17T15:35:27.835Z,16.67
2019-02-17T15:38:09.997Z,17.03
2019-02-17T15:44:00.479Z,15.77
2019-02-17T15:46:49.781Z,15.97
2019-02-17T15:49:32.148Z,15.00
2019-02-17T15:52:16.679Z,15.22
2019-02-17T15:55:07.864Z,15.37
2019-02-17T16:00:44.789Z,15.40
2019-02-17T16:06:22.884Z,14.60
2019-02-17T16:09:12.858Z,15.37
2019-02-17T16:11:55.231Z,15.80
2019-02-17T16:14:45.327Z,15.20
2019-02-17T16:17:26.968Z,16.50
2019-02-17T16:20:16.575Z,15.87
2019-02-17T16:22:59.552Z,17.07
2019-02-17T16:25:49.443Z,17.00
2019-02-17T16:28:31.886Z,16.43
2019-02-17T16:31:22.337Z,19.25
2019-02-17T16:34:04.097Z,16.53
2019-02-17T16:36:53.792Z,17.17
2019-02-17T16:39:41.552Z,17.60
2019-02-17T16:42:28.606Z,22.37
2019-02-17T16:48:19.227Z,17.47
2019-02-17T16:51:08.822Z,18.43
2019-02-17T16:53:39.173Z,18.73
2019-02-17T16:56:28.570Z,18.30
2019-02-17T16:58:58.823Z,26.07
2019-02-17T17:04:48.505Z,31.80
2019-02-17T17:07:26.928Z,37.70
2019-02-17T17:10:16.279Z,38.83
2019-02-17T17:12:58.504Z,45.53
2019-02-17T17:18:45.217Z,30.83
2019-02-17T17:21:27.231Z,29.13
2019-02-17T17:24:16.673Z,27.70
2019-02-17T17:26:58.695Z,23.27
2019-02-17T17:29:48.149Z,23.50
2019-02-17T17:32:31.674Z,23.37
2019-02-17T17:38:08.747Z,20.43
2019-02-17T17:43:50.278Z,19.85
2019-02-17T17:49:27.726Z,19.90
2019-02-17T17:52:17.205Z,20.87
2019-02-17T17:54:59.433Z,20.40
2019-02-17T17:57:48.811Z,21.50
2019-02-17T18:00:32.542Z,22.52
2019-02-17T18:06:10.704Z,21.87
2019-02-17T18:11:35.590Z,19.57
2019-02-17T18:14:25.025Z,20.27
2019-02-17T18:17:14.381Z,19.40
2019-02-17T18:19:57.078Z,19.73
2019-02-17T18:26:14.257Z,21.03
2019-02-17T18:31:58.946Z,21.73
2019-02-17T18:34:40.798Z,22.64
2019-02-17T18:37:30.361Z,21.57
2019-02-17T18:40:13.104Z,21.43
2019-02-17T18:43:02.687Z,21.05
2019-02-17T18:45:45.063Z,19.83
2019-02-17T18:48:36.758Z,19.90
2019-02-17T18:51:18.910Z,19.40
2019-02-17T18:54:08.678Z,19.03
2019-02-17T18:56:50.669Z,18.90
2019-02-17T19:04:53.025Z,20.23
2019-02-17T19:07:23.302Z,19.30
2019-02-17T19:10:13.167Z,18.70
2019-02-17T19:15:56.533Z,19.67
2019-02-17T19:18:46.187Z,19.17
2019-02-17T19:21:16.546Z,19.60
2019-02-17T19:27:01.234Z,19.77
2019-02-17T19:29:43.561Z,19.90
2019-02-17T19:32:26.564Z,20.47
2019-02-17T19:38:10.969Z,20.12
2019-02-17T19:41:01.601Z,19.10
2019-02-17T19:43:44.977Z,19.23
2019-02-17T19:49:36.291Z,18.53
2019-02-17T19:55:26.703Z,19.70
2019-02-17T20:00:58.095Z,20.12
2019-02-17T20:04:06.601Z,19.77
2019-02-17T20:06:48.447Z,18.03
2019-02-17T20:12:40.462Z,19.65
2019-02-17T20:18:34.424Z,19.80
2019-02-17T20:21:23.811Z,19.70
2019-02-17T20:24:07.964Z,19.43
2019-02-17T20:26:58.112Z,19.12
2019-02-17T20:29:28.460Z,18.92
2019-02-17T20:32:17.812Z,18.53
2019-02-17T20:35:00.640Z,19.67
2019-02-17T20:40:37.900Z,18.50
2019-02-17T20:43:27.307Z,18.80
2019-02-17T20:46:09.678Z,16.87
2019-02-17T20:48:59.092Z,18.73
2019-02-17T20:51:29.660Z,18.87
2019-02-17T20:53:59.941Z,18.92
2019-02-17T20:56:46.200Z,19.60
2019-02-17T20:59:35.509Z,18.53
2019-02-17T21:02:17.775Z,18.80
2019-02-17T21:05:26.594Z,19.20
2019-02-17T21:08:09.070Z,18.33
2019-02-17T21:14:00.441Z,18.77
2019-02-17T21:16:50.054Z,18.87
2019-02-17T21:19:32.151Z,18.90
2019-02-17T21:25:22.743Z,19.17
2019-02-17T21:27:52.997Z,19.27
2019-02-17T21:30:23.616Z,18.70
2019-02-17T21:35:49.100Z,19.10
2019-02-17T21:38:38.742Z,19.07
2019-02-17T21:41:28.103Z,18.80
2019-02-17T21:44:10.681Z,18.97
2019-02-17T21:47:00.327Z,18.27
2019-02-17T21:49:42.293Z,18.90
2019-02-17T21:52:26.166Z,18.80
2019-02-17T21:55:08.034Z,19.20
2019-02-17T21:57:57.452Z,20.00
2019-02-17T22:00:39.964Z,19.97
2019-02-17T22:03:29.316Z,19.77
2019-02-17T22:06:11.667Z,18.43
2019-02-17T22:09:01.290Z,19.57
2019-02-17T22:11:42.906Z,19.10
2019-02-17T22:14:32.764Z,18.90
2019-02-17T22:17:14.825Z,18.63
2019-02-17T22:20:05.221Z,19.87
2019-02-17T22:22:47.384Z,19.13
2019-02-17T22:28:37.561Z,19.27
2019-02-17T22:31:27.186Z,20.73
2019-02-17T22:34:09.011Z,19.67
2019-02-17T22:40:00.326Z,18.80
2019-02-17T22:45:53.100Z,19.35
2019-02-17T22:48:23.362Z,19.50
2019-02-17T22:51:12.769Z,19.33
2019-02-17T22:53:55.337Z,19.45
2019-02-17T22:57:04.206Z,19.27
2019-02-17T22:59:46.619Z,18.63
2019-02-17T23:02:36.333Z,19.23
2019-02-17T23:05:25.964Z,19.07
2019-02-17T23:11:27.623Z,18.87
2019-02-17T23:14:17.202Z,18.97
2019-02-17T23:16:59.989Z,18.57
2019-02-17T23:19:49.839Z,18.57
2019-02-17T23:22:33.471Z,20.03
2019-02-17T23:25:23.297Z,19.17
2019-02-17T23:28:05.446Z,18.62
2019-02-17T23:33:57.353Z,18.03
2019-02-17T23:39:48.341Z,18.03
2019-02-17T23:42:37.677Z,18.37
2019-02-17T23:45:08.891Z,18.57
2019-02-17T23:47:58.515Z,19.23
2019-02-17T23:50:40.453Z,18.63
2019-02-17T23:53:26.457Z,19.23
2019-02-17T23:56:09.022Z,19.17
